Time;durP1;ratioP1;P1;durP2;ratioP2;P2;SDS_P1;SDS_P2;PMS_P1;PMS_P2;Temp;Humidity;BMP_temperature;BMP_pressure;BME280_temperature;BME280_humidity;BME280_pressure;Samples;Min_cycle;Max_cycle;Signal;HPM_P1;HPM_P2
2021/12/08 00:00:00;;;;;;;11.43;8.10;;;;;;;4.80;100.00;99058.88;10542725;28;20031;-76
2021/12/08 00:05:00;;;;;;;8.68;7.03;;;;;;;4.93;100.00;99066.09;10539434;28;20048;-77
2021/12/08 00:10:12;;;;;;;9.75;7.45;;;;;;;5.02;100.00;99059.50;10540303;28;20429;-75
2021/12/08 00:15:13;;;;;;;6.22;5.57;;;;;;;5.10;100.00;99059.25;10542579;28;20149;-77
2021/12/08 00:20:13;;;;;;;6.50;5.95;;;;;;;5.15;100.00;99046.06;10541481;28;20459;-77
2021/12/08 00:25:14;;;;;;;6.53;5.50;;;;;;;5.21;100.00;99041.72;10540096;28;20061;-75
2021/12/08 00:30:16;;;;;;;8.15;6.95;;;;;;;5.24;100.00;99042.13;10539917;28;20128;-77
2021/12/08 00:35:16;;;;;;;11.90;6.47;;;;;;;5.29;100.00;99053.06;10542961;28;20085;-76
2021/12/08 00:40:17;;;;;;;11.75;7.05;;;;;;;5.37;100.00;99057.41;10521228;28;20024;-75
2021/12/08 00:45:18;;;;;;;6.43;5.55;;;;;;;5.42;100.00;99043.34;10539781;28;20043;-75
2021/12/08 00:50:19;;;;;;;18.17;6.00;;;;;;;5.45;100.00;99040.22;10539563;28;20032;-75
2021/12/08 00:55:19;;;;;;;6.20;5.07;;;;;;;5.51;100.00;99042.06;10504691;28;20036;-77
2021/12/08 01:00:43;;;;;;;9.30;4.38;;;;;;;5.47;100.00;99068.53;10537634;28;20107;-76
2021/12/08 01:05:55;;;;;;;7.60;3.97;;;;;;;5.47;100.00;99071.22;10538946;28;20048;-75
2021/12/08 01:10:57;;;;;;;8.43;5.20;;;;;;;5.52;100.00;99073.25;10537990;28;20037;-76
2021/12/08 01:15:59;;;;;;;8.32;4.57;;;;;;;5.53;100.00;99097.22;10537063;28;20414;-74
2021/12/08 01:21:00;;;;;;;6.00;4.35;;;;;;;5.54;100.00;99106.09;10539107;28;20439;-74
2021/12/08 01:26:01;;;;;;;7.68;5.57;;;;;;;5.50;100.00;99105.69;10547071;28;20134;-77
2021/12/08 01:31:02;;;;;;;6.10;5.18;;;;;;;5.56;100.00;99112.91;10530225;28;20367;-75
2021/12/08 01:36:03;;;;;;;6.30;5.70;;;;;;;5.55;100.00;99130.06;10528530;28;20134;-76
2021/12/08 01:41:04;;;;;;;11.27;5.85;;;;;;;5.62;100.00;99129.22;10544616;28;20032;-75
2021/12/08 01:46:06;;;;;;;9.98;6.50;;;;;;;5.61;100.00;99125.69;10546247;28;20451;-76
2021/12/08 01:51:11;;;;;;;5.28;4.07;;;;;;;5.57;100.00;99117.25;10527942;28;20500;-74
2021/12/08 01:56:12;;;;;;;13.30;4.47;;;;;;;5.52;100.00;99127.78;10545611;28;20036;-76
2021/12/08 02:01:17;;;;;;;8.13;4.25;;;;;;;5.57;100.00;99132.53;10545007;28;20043;-76
2021/12/08 02:06:18;;;;;;;6.72;4.65;;;;;;;5.55;100.00;99124.69;10545341;28;20059;-76
2021/12/08 02:11:20;;;;;;;13.13;5.65;;;;;;;5.58;100.00;99143.06;10544834;28;20040;-76
2021/12/08 02:16:21;;;;;;;10.20;4.38;;;;;;;5.64;100.00;99143.25;10545521;28;20177;-76
2021/12/08 02:21:33;;;;;;;5.40;4.85;;;;;;;5.62;100.00;99151.53;10544997;28;20036;-75
2021/12/08 02:26:34;;;;;;;13.52;5.32;;;;;;;5.66;100.00;99152.75;10545556;28;20032;-76
2021/12/08 02:31:47;;;;;;;13.63;6.90;;;;;;;5.66;100.00;99160.00;10544689;28;20123;-75
2021/12/08 02:52:29;;;;;;;4.20;3.80;;;;;;;5.54;100.00;99144.50;10543406;28;20039;-75
2021/12/08 02:57:29;;;;;;;6.82;4.20;;;;;;;5.40;100.00;99155.47;10541862;28;20395;-76
2021/12/08 03:02:29;;;;;;;9.43;3.83;;;;;;;5.32;100.00;99160.00;10543034;28;20115;-75
2021/12/08 03:07:30;;;;;;;4.22;3.35;;;;;;;5.21;100.00;99167.84;10544176;28;20052;-75
2021/12/08 03:12:30;;;;;;;3.50;2.33;;;;;;;5.19;100.00;99162.69;10543893;28;20140;-76
2021/12/08 03:17:33;;;;;;;2.58;1.80;;;;;;;4.91;99.82;99157.47;10529064;28;20457;-74
2021/12/08 03:22:36;;;;;;;3.53;2.25;;;;;;;4.85;99.65;99169.88;10542155;28;20115;-75
2021/12/08 03:27:44;;;;;;;3.70;1.90;;;;;;;4.67;100.00;99172.28;10540770;28;20028;-76
2021/12/08 03:32:44;;;;;;;2.95;2.58;;;;;;;4.63;100.00;99165.69;10542578;28;20036;-76
2021/12/08 03:37:45;;;;;;;2.83;2.67;;;;;;;4.64;100.00;99160.09;10541585;28;20111;-76
2021/12/08 03:42:47;;;;;;;8.80;5.22;;;;;;;4.62;100.00;99177.41;10523359;28;20024;-74
2021/12/08 03:47:48;;;;;;;7.07;3.50;;;;;;;4.60;100.00;99182.16;10541190;28;20036;-75
2021/12/08 03:52:49;;;;;;;11.80;4.22;;;;;;;4.59;99.97;99188.53;10539888;28;20058;-75
2021/12/08 03:57:49;;;;;;;7.07;3.60;;;;;;;4.55;99.77;99189.97;10540739;28;20064;-77
2021/12/08 04:02:49;;;;;;;8.75;3.28;;;;;;;4.49;99.65;99218.41;10540200;28;20111;-76
2021/12/08 04:07:52;;;;;;;10.73;2.90;;;;;;;4.45;100.00;99187.66;10539182;28;20052;-75
2021/12/08 04:12:53;;;;;;;12.02;4.07;;;;;;;4.37;99.46;99186.00;10540580;28;20059;-75
2021/12/08 04:17:54;;;;;;;8.38;2.88;;;;;;;4.34;99.42;99190.91;10541319;28;20066;-75
2021/12/08 04:22:55;;;;;;;9.82;3.53;;;;;;;4.34;98.50;99189.06;10538905;28;20460;-76
2021/12/08 04:27:58;;;;;;;11.32;3.75;;;;;;;4.31;100.00;99218.94;10538557;28;20036;-76
2021/12/08 04:32:58;;;;;;;2.90;2.55;;;;;;;4.27;99.54;99228.38;10538478;28;20396;-75
2021/12/08 04:38:01;;;;;;;6.25;2.83;;;;;;;4.26;99.78;99237.47;10539032;28;20043;-77
2021/12/08 04:43:19;;;;;;;4.07;3.45;;;;;;;4.24;99.58;99236.81;10541645;28;20032;-76
2021/12/08 05:09:16;;;;;;;5.72;3.80;;;;;;;4.08;98.62;99218.38;10547643;28;20047;-78
2021/12/08 05:14:34;;;;;;;10.32;3.97;;;;;;;4.06;99.47;99209.72;10548686;28;20455;-77
2021/12/08 05:19:34;;;;;;;17.48;6.00;;;;;;;4.03;98.67;99229.69;10546294;28;20456;-79
2021/12/08 05:24:37;;;;;;;16.13;5.47;;;;;;;4.02;99.09;99235.22;10546350;28;20161;-78
2021/12/08 05:29:43;;;;;;;13.85;2.97;;;;;;;3.91;98.27;99225.91;10548652;28;20032;-79
2021/12/08 05:34:44;;;;;;;11.07;4.60;;;;;;;3.91;99.00;99240.13;10550629;28;20036;-78
2021/12/08 05:39:45;;;;;;;9.60;4.40;;;;;;;3.89;98.81;99254.72;10550044;28;20040;-79
2021/12/08 05:44:45;;;;;;;13.27;4.40;;;;;;;3.98;100.00;99272.28;10549049;28;20036;-78
2021/12/08 05:49:46;;;;;;;18.90;4.85;;;;;;;4.03;99.88;99263.69;10549405;28;20032;-78
2021/12/08 05:54:47;;;;;;;9.20;5.32;;;;;;;3.95;99.26;99268.16;10547423;28;20123;-79
2021/12/08 05:59:48;;;;;;;3.65;2.50;;;;;;;3.90;98.45;99286.66;10545604;28;20096;-79
2021/12/08 06:04:48;;;;;;;20.73;4.25;;;;;;;3.91;98.35;99284.81;10527203;28;20135;-81
2021/12/08 06:09:54;;;;;;;8.00;3.45;;;;;;;3.79;98.33;99310.47;10545630;28;20036;-78
2021/12/08 06:14:56;;;;;;;7.47;3.28;;;;;;;3.77;98.81;99301.81;10543258;28;20423;-78
2021/12/08 06:19:57;;;;;;;14.02;3.53;;;;;;;3.80;99.77;99321.00;10544146;28;20032;-78
2021/12/08 06:24:57;;;;;;;15.68;4.15;;;;;;;3.94;99.54;99324.59;10545186;28;20028;-78
2021/12/08 06:29:57;;;;;;;5.93;3.30;;;;;;;3.82;99.07;99326.13;10544375;28;20425;-78
2021/12/08 06:34:58;;;;;;;14.27;4.25;;;;;;;3.78;99.02;99332.91;10544628;28;20036;-80
2021/12/08 06:40:07;;;;;;;6.90;4.32;;;;;;;3.77;99.91;99332.09;10544255;28;20035;-79
2021/12/08 06:45:10;;;;;;;3.95;3.63;;;;;;;3.79;99.58;99335.38;10548708;28;20063;-79
2021/12/08 06:50:15;;;;;;;18.08;4.93;;;;;;;3.76;99.55;99335.75;10543288;28;20127;-79
2021/12/08 06:55:18;;;;;;;10.25;3.08;;;;;;;3.73;99.17;99341.50;10543313;28;20031;-77
2021/12/08 07:01:00;;;;;;;8.23;3.47;;;;;;;3.69;99.57;99354.44;10541751;28;20486;-78
2021/12/08 07:06:08;;;;;;;8.98;3.60;;;;;;;3.69;99.04;99356.28;10542425;28;20051;-78
2021/12/08 07:11:08;;;;;;;10.73;3.40;;;;;;;3.63;98.87;99349.84;10544245;28;20046;-79
2021/12/08 07:16:11;;;;;;;6.68;4.05;;;;;;;3.65;99.29;99355.03;10542348;28;20107;-80
2021/12/08 07:21:12;;;;;;;6.90;4.43;;;;;;;3.77;100.00;99350.81;10539977;28;20040;-78
2021/12/08 07:26:16;;;;;;;7.20;3.95;;;;;;;3.70;98.93;99339.19;10540477;28;20048;-77
2021/12/08 07:31:44;;;;;;;6.03;2.47;;;;;;;3.88;100.00;99346.78;10539889;28;20036;-78
2021/12/08 07:36:47;;;;;;;8.55;3.53;;;;;;;3.90;99.69;99366.19;10540772;28;20036;-78
2021/12/08 07:41:52;;;;;;;9.55;3.63;;;;;;;3.85;98.93;99358.72;10541980;28;20024;-76
2021/12/08 07:46:59;;;;;;;13.05;4.32;;;;;;;3.81;98.37;99356.63;10543595;28;20020;-79
2021/12/08 07:52:01;;;;;;;;;;;;;;;3.83;99.01;99368.81;10548626;28;20028;-78
2021/12/08 07:57:06;;;;;;;8.05;3.97;;;;;;;3.89;99.73;99365.38;10545325;28;19908;-78
2021/12/08 08:02:07;;;;;;;4.63;2.70;;;;;;;3.96;100.00;99370.78;10524314;28;20031;-77
2021/12/08 08:07:08;;;;;;;7.80;4.05;;;;;;;4.13;99.98;99369.47;10523004;28;20063;-77
2021/12/08 08:12:12;;;;;;;10.75;4.38;;;;;;;4.66;99.51;99377.91;10540408;28;20036;-78
2021/12/08 08:17:14;;;;;;;6.03;3.42;;;;;;;4.84;100.00;99390.78;10542320;28;20034;-76
2021/12/08 08:22:23;;;;;;;3.83;3.50;;;;;;;4.59;98.97;99392.28;10541790;28;20067;-78
2021/12/08 08:27:24;;;;;;;9.88;3.40;;;;;;;4.60;100.00;99393.97;10540859;28;20178;-78
2021/12/08 08:32:33;;;;;;;3.17;2.88;;;;;;;4.68;99.95;99396.47;10538789;28;20492;-76
2021/12/08 08:37:33;;;;;;;7.35;3.47;;;;;;;4.76;99.67;99396.31;10540473;28;20539;-75
2021/12/08 08:42:35;;;;;;;3.63;2.88;;;;;;;5.25;100.00;99389.97;10538960;28;20119;-76
2021/12/08 08:47:42;;;;;;;7.32;1.98;;;;;;;5.16;98.42;99393.84;10541226;28;20067;-77
2021/12/08 08:52:45;;;;;;;12.13;3.90;;;;;;;5.32;100.00;99401.56;10539848;28;20028;-76
2021/12/08 08:57:46;;;;;;;8.88;3.42;;;;;;;5.17;99.29;99395.53;10539091;28;20071;-78
2021/12/08 09:02:47;;;;;;;5.88;3.53;;;;;;;5.14;99.36;99403.97;10539346;28;20084;-75
2021/12/08 09:07:51;;;;;;;12.02;4.68;;;;;;;5.16;98.63;99401.06;10521770;28;20501;-75
2021/12/08 09:12:59;;;;;;;14.40;4.88;;;;;;;5.28;98.73;99405.69;10538127;28;20115;-74
2021/12/08 09:18:07;;;;;;;6.05;3.70;;;;;;;5.20;99.01;99388.91;10539826;28;20188;-75
2021/12/08 09:23:12;;;;;;;9.75;3.75;;;;;;;5.07;99.23;99398.56;10538847;28;20122;-77
2021/12/08 09:28:21;;;;;;;4.43;3.00;;;;;;;5.03;99.02;99417.94;10540432;28;20024;-76
2021/12/08 09:33:25;;;;;;;4.93;3.58;;;;;;;5.10;100.00;99435.72;10536613;28;20190;-77
2021/12/08 09:38:34;;;;;;;8.55;4.32;;;;;;;4.91;98.29;99431.06;10538346;28;20059;-76
2021/12/08 09:43:40;;;;;;;8.68;3.60;;;;;;;5.09;100.00;99452.84;10542021;28;20024;-75
2021/12/08 09:48:42;;;;;;;5.80;3.95;;;;;;;5.07;100.00;99451.38;10546619;28;20430;-77
2021/12/08 09:53:43;;;;;;;8.93;4.10;;;;;;;5.09;100.00;99452.03;10544352;28;20044;-76
2021/12/08 09:58:44;;;;;;;9.07;4.45;;;;;;;5.03;99.14;99463.53;10545447;28;20032;-77
2021/12/08 10:03:45;;;;;;;3.83;3.42;;;;;;;5.18;100.00;99469.63;10544790;28;20032;-76
2021/12/08 10:08:46;;;;;;;4.43;2.88;;;;;;;5.26;100.00;99485.56;10544794;28;20522;-76
2021/12/08 10:13:47;;;;;;;5.47;4.30;;;;;;;5.13;98.01;99480.13;10544394;28;20071;-76
2021/12/08 10:18:47;;;;;;;12.48;3.47;;;;;;;5.14;97.87;99495.22;10544444;28;20383;-75
2021/12/08 10:23:48;;;;;;;5.45;3.88;;;;;;;5.16;97.50;99493.13;10542241;28;20067;-76
2021/12/08 10:28:54;;;;;;;14.95;5.25;;;;;;;5.29;98.45;99485.16;10544018;28;20047;-75
2021/12/08 10:34:09;;;;;;;4.40;3.95;;;;;;;5.42;97.99;99480.88;10543008;28;20081;-76
2021/12/08 10:39:22;;;;;;;9.82;4.15;;;;;;;6.02;98.35;99473.94;10542592;28;20074;-76
2021/12/08 10:44:24;;;;;;;9.23;3.20;;;;;;;5.82;96.75;99473.84;10548002;28;20084;-76
2021/12/08 10:54:46;;;;;;;7.57;4.35;;;;;;;5.55;95.83;99478.25;10496980;28;20036;-75
2021/12/08 10:59:51;;;;;;;12.82;3.88;;;;;;;5.44;95.48;99477.00;10543496;28;20040;-76
2021/12/08 11:04:51;;;;;;;7.75;3.40;;;;;;;5.36;96.60;99475.31;10541892;28;20044;-76
2021/12/08 11:09:52;;;;;;;10.27;4.43;;;;;;;5.56;98.12;99485.31;10541715;28;20044;-77
2021/12/08 11:14:52;;;;;;;8.43;4.28;;;;;;;5.78;98.52;99483.34;10541688;28;20056;-76
2021/12/08 11:20:29;;;;;;;4.25;3.10;;;;;;;5.68;93.98;99485.56;10542181;28;20035;-75
2021/12/08 11:25:35;;;;;;;4.88;3.10;;;;;;;5.81;95.99;99488.31;10542294;28;20024;-75
2021/12/08 11:30:36;;;;;;;5.75;3.03;;;;;;;5.80;96.63;99505.44;10540554;28;20031;-76
2021/12/08 11:35:36;;;;;;;3.33;2.67;;;;;;;5.71;94.79;99488.69;10540675;28;20117;-75
2021/12/08 11:40:37;;;;;;;8.63;3.08;;;;;;;5.65;95.52;99496.69;10540971;28;20089;-76
2021/12/08 11:45:39;;;;;;;12.88;3.30;;;;;;;5.68;96.00;99489.09;10539676;28;20418;-76
2021/12/08 11:50:40;;;;;;;6.28;2.75;;;;;;;5.82;96.01;99506.91;10523258;28;20023;-75
2021/12/08 11:55:41;;;;;;;7.07;4.97;;;;;;;6.32;96.09;99505.81;10540114;28;20464;-76
2021/12/08 12:00:45;;;;;;;5.95;3.55;;;;;;;7.57;96.96;99494.16;10540244;28;20145;-75
2021/12/08 12:05:47;;;;;;;12.82;3.33;;;;;;;7.77;92.57;99474.38;10537668;28;20052;-78
2021/12/08 12:10:49;;;;;;;9.38;2.95;;;;;;;7.81;92.54;99486.38;10539401;28;20168;-77
2021/12/08 12:15:49;;;;;;;4.90;2.38;;;;;;;7.75;87.00;99500.72;10539681;28;20028;-76
2021/12/08 12:20:59;;;;;;;3.35;2.25;;;;;;;7.48;89.80;99500.81;10521531;28;20024;-75
2021/12/08 12:26:14;;;;;;;5.95;2.72;;;;;;;7.71;89.47;99505.69;10537625;28;20447;-76
2021/12/08 12:31:36;;;;;;;6.82;3.08;;;;;;;7.86;91.33;99513.53;10539172;28;20056;-76
2021/12/08 12:36:37;;;;;;;5.07;2.05;;;;;;;8.05;91.53;99511.78;10539803;28;20036;-77
2021/12/08 12:41:37;;;;;;;7.43;4.43;;;;;;;7.52;93.35;99512.81;10541322;28;20043;-76
2021/12/08 12:46:38;;;;;;;2.55;2.35;;;;;;;7.25;92.23;99527.38;10539475;28;20430;-76
2021/12/08 12:52:00;;;;;;;4.95;2.75;;;;;;;7.01;93.35;99526.16;10537728;28;20060;-76
2021/12/08 12:57:03;;;;;;;5.72;4.00;;;;;;;6.79;91.21;99523.66;10540069;28;20455;-77
2021/12/08 13:02:04;;;;;;;2.80;2.58;;;;;;;6.72;94.19;99523.66;10537630;28;20475;-75
2021/12/08 13:07:05;;;;;;;13.95;2.42;;;;;;;6.34;93.09;99547.59;10538280;28;20368;-75
2021/12/08 13:12:25;;;;;;;10.75;5.30;;;;;;;6.51;95.10;99572.28;10537881;28;20185;-77
2021/12/08 13:17:25;;;;;;;3.65;2.72;;;;;;;6.57;91.62;99584.88;10540439;28;20508;-76
2021/12/08 13:22:47;;;;;;;16.63;3.38;;;;;;;6.39;92.37;99580.09;10545287;28;20036;-78
2021/12/08 13:27:48;;;;;;;6.72;2.50;;;;;;;6.46;94.26;99589.00;10546925;28;20036;-75
2021/12/08 13:32:57;;;;;;;7.75;3.92;;;;;;;6.54;94.34;99598.78;10546162;28;20032;-76
2021/12/08 13:37:57;;;;;;;5.72;2.45;;;;;;;6.62;95.71;99598.56;10546625;28;20070;-75
2021/12/08 13:43:05;;;;;;;11.07;4.28;;;;;;;6.39;95.32;99592.72;10545797;28;20422;-75
2021/12/08 13:48:05;;;;;;;8.40;2.90;;;;;;;6.31;94.75;99600.97;10529472;28;20456;-76
2021/12/08 13:53:09;;;;;;;3.42;2.50;;;;;;;6.36;95.61;99603.88;10544282;28;20040;-75
2021/12/08 13:58:15;;;;;;;5.90;2.60;;;;;;;6.19;95.71;99612.31;10545289;28;20391;-77
2021/12/08 14:03:35;;;;;;;6.50;3.05;;;;;;;6.05;95.61;99607.88;10544960;28;20036;-76
2021/12/08 14:08:36;;;;;;;3.70;2.55;;;;;;;6.03;95.78;99621.53;10546685;28;20434;-76
2021/12/08 14:13:38;;;;;;;8.02;2.97;;;;;;;6.00;94.61;99621.94;10544491;28;20068;-75
2021/12/08 14:18:43;;;;;;;5.05;2.83;;;;;;;6.13;92.77;99625.72;10545011;28;20043;-76
2021/12/08 14:23:55;;;;;;;11.00;2.92;;;;;;;6.17;94.46;99638.53;10543148;28;20077;-74
2021/12/08 14:28:59;;;;;;;12.75;4.75;;;;;;;6.05;95.24;99651.72;10543439;28;20040;-76
2021/12/08 14:33:59;;;;;;;10.57;4.30;;;;;;;5.67;95.04;99655.78;10543626;28;20036;-75
2021/12/08 14:39:00;;;;;;;6.28;4.05;;;;;;;5.73;95.60;99668.44;10542604;28;20478;-76
2021/12/08 14:44:12;;;;;;;7.25;3.88;;;;;;;5.42;93.62;99668.81;10544780;28;20128;-78
2021/12/08 14:49:19;;;;;;;9.63;4.93;;;;;;;5.37;95.07;99664.03;10527908;28;20040;-76
2021/12/08 14:54:27;;;;;;;6.55;4.13;;;;;;;5.26;94.98;99676.13;10544055;28;20178;-74
2021/12/08 14:59:28;;;;;;;9.05;3.53;;;;;;;5.09;94.48;99678.25;10543857;28;20071;-77
2021/12/08 15:04:28;;;;;;;7.80;3.88;;;;;;;4.98;95.65;99676.09;10524766;28;20080;-75
2021/12/08 15:09:29;;;;;;;11.23;4.65;;;;;;;4.81;94.77;99686.19;10542483;28;20032;-76
2021/12/08 15:14:37;;;;;;;6.55;3.35;;;;;;;4.70;95.72;99704.66;10542436;28;20032;-75
2021/12/08 15:19:49;;;;;;;6.38;3.85;;;;;;;4.60;95.65;99715.69;10544121;28;20104;-76
2021/12/08 15:24:49;;;;;;;22.52;5.40;;;;;;;4.57;96.13;99711.53;10543108;28;20057;-70
2021/12/08 15:29:49;;;;;;;4.07;3.10;;;;;;;4.55;96.35;99715.41;10542585;28;20120;-75
2021/12/08 15:34:50;;;;;;;8.45;5.22;;;;;;;4.53;96.13;99712.94;10540010;28;20125;-75
2021/12/08 15:39:56;;;;;;;19.23;4.03;;;;;;;4.47;96.17;99718.19;10540217;28;20048;-76
2021/12/08 15:44:59;;;;;;;4.07;3.73;;;;;;;4.38;96.60;99729.03;10541483;28;20039;-76
2021/12/08 15:49:59;;;;;;;10.82;4.95;;;;;;;4.35;96.09;99736.59;10540283;28;20241;-75
2021/12/08 15:55:04;;;;;;;12.60;4.18;;;;;;;4.17;96.51;99743.16;10540679;28;20024;-76
2021/12/08 16:00:05;;;;;;;6.45;3.58;;;;;;;4.18;95.81;99744.00;10540926;28;20050;-75
2021/12/08 16:05:08;;;;;;;7.53;4.15;;;;;;;4.09;95.56;99739.75;10523267;28;20063;-75
2021/12/08 16:10:18;;;;;;;4.53;3.25;;;;;;;4.00;96.17;99751.56;10540147;28;20117;-75
2021/12/08 16:15:19;;;;;;;6.38;4.80;;;;;;;4.04;96.08;99750.16;10539806;28;20102;-74
2021/12/08 16:20:19;;;;;;;5.40;3.67;;;;;;;3.96;96.06;99761.81;10540589;28;20035;-74
2021/12/08 16:25:20;;;;;;;5.13;4.05;;;;;;;3.89;96.42;99772.44;10538393;28;20036;-75
2021/12/08 16:30:20;;;;;;;11.27;3.50;;;;;;;3.91;95.90;99765.03;10541542;28;20119;-75
2021/12/08 16:35:21;;;;;;;10.82;4.43;;;;;;;3.80;95.82;99781.53;10541543;28;20456;-75
2021/12/08 16:43:00;;;;;;;8.18;3.92;;;;;;;3.82;96.56;99784.84;10538008;28;20036;-75
2021/12/08 16:45:44;;;;;;;14.38;5.88;;;;;;;3.81;96.41;99782.38;10540010;28;20044;-75
2021/12/08 16:50:44;;;;;;;6.65;4.18;;;;;;;3.86;96.87;99793.34;10522506;28;20039;-74
2021/12/08 16:55:45;;;;;;;8.68;5.63;;;;;;;3.83;96.99;99791.91;10549612;28;20038;-74
2021/12/08 17:00:49;;;;;;;4.68;3.53;;;;;;;3.84;96.15;99798.91;10548950;28;20032;-75
2021/12/08 17:05:51;;;;;;;12.27;4.57;;;;;;;3.76;97.32;99815.03;10530972;28;20079;-75
2021/12/08 17:10:54;;;;;;;9.55;4.55;;;;;;;3.87;97.63;99809.25;10547156;28;20039;-76
2021/12/08 17:15:54;;;;;;;4.05;3.20;;;;;;;3.91;97.42;99813.22;10529797;28;20024;-75
2021/12/08 17:20:55;;;;;;;19.13;4.95;;;;;;;3.97;97.56;99811.69;10549088;28;20471;-76
2021/12/08 17:25:55;;;;;;;8.15;4.20;;;;;;;4.05;97.55;99822.34;10546233;28;20047;-74
2021/12/08 17:30:56;;;;;;;10.68;4.20;;;;;;;4.22;99.35;99825.69;10548262;28;20063;-73
2021/12/08 17:36:01;;;;;;;5.82;3.35;;;;;;;4.49;100.00;99826.06;10550488;28;20032;-75
2021/12/08 17:41:02;;;;;;;8.80;4.43;;;;;;;4.62;100.00;99834.28;10546535;28;20032;-75
2021/12/08 17:46:06;;;;;;;6.35;4.65;;;;;;;4.80;100.00;99833.91;10546369;28;20105;-75
2021/12/08 17:51:08;;;;;;;7.88;4.18;;;;;;;4.76;99.97;99835.31;10544886;28;20035;-72
2021/12/08 17:56:08;;;;;;;12.18;3.58;;;;;;;4.69;99.36;99840.59;10544539;28;20032;-75
2021/12/08 18:01:09;;;;;;;9.75;4.38;;;;;;;4.78;99.73;99838.63;10545806;28;20076;-74
2021/12/08 18:06:09;;;;;;;12.57;6.13;;;;;;;4.66;99.03;99854.38;10544323;28;20059;-75
2021/12/08 18:11:09;;;;;;;6.57;4.88;;;;;;;4.56;98.24;99845.75;10528374;28;20067;-73
2021/12/08 18:16:11;;;;;;;13.00;5.00;;;;;;;4.39;97.47;99839.75;10544266;28;20039;-75
2021/12/08 18:21:12;;;;;;;3.70;3.22;;;;;;;4.22;97.27;99841.75;10543762;28;20051;-75
2021/12/08 18:26:12;;;;;;;5.38;3.95;;;;;;;4.20;97.00;99859.84;10543498;28;20067;-75
2021/12/08 18:31:13;;;;;;;7.78;5.50;;;;;;;4.09;96.85;99847.75;10544374;28;20161;-74
2021/12/08 18:36:21;;;;;;;7.10;4.40;;;;;;;3.93;96.81;99864.78;10543565;28;20094;-75
2021/12/08 18:41:21;;;;;;;9.75;5.50;;;;;;;3.94;97.74;99865.59;10541759;28;20043;-75
2021/12/08 18:46:22;;;;;;;9.45;4.95;;;;;;;3.88;97.05;99883.22;10542572;28;20491;-73
2021/12/08 18:51:25;;;;;;;19.90;6.38;;;;;;;3.90;97.10;99881.22;10525299;28;20361;-74
2021/12/08 18:56:25;;;;;;;9.93;7.38;;;;;;;3.88;98.13;99893.94;10525842;28;20039;-74
2021/12/08 19:01:29;;;;;;;15.15;6.20;;;;;;;4.05;99.06;99899.16;10541659;28;20478;-75
2021/12/08 19:06:29;;;;;;;10.82;6.20;;;;;;;4.08;98.45;99904.16;10542287;28;20498;-74
2021/12/08 19:11:30;;;;;;;12.77;6.00;;;;;;;4.00;97.55;99897.03;10542462;28;20043;-73
2021/12/08 19:16:30;;;;;;;12.80;5.10;;;;;;;3.90;98.38;99893.78;10541764;28;20090;-74
2021/12/08 19:21:31;;;;;;;7.07;3.95;;;;;;;3.97;98.74;99897.38;10542612;28;20471;-75
2021/12/08 19:26:31;;;;;;;12.75;4.65;;;;;;;4.01;97.75;99909.41;10542117;28;20109;-73
2021/12/08 19:31:32;;;;;;;11.75;5.88;;;;;;;3.87;97.40;99910.19;10541743;28;20471;-74
2021/12/08 19:36:32;;;;;;;5.60;4.95;;;;;;;3.89;97.22;99926.91;10540922;28;20040;-73
2021/12/08 19:41:32;;;;;;;11.80;6.25;;;;;;;3.83;98.07;99930.28;10540265;28;20103;-75
2021/12/08 19:46:34;;;;;;;16.58;6.65;;;;;;;3.81;97.04;99929.66;10524517;28;20031;-75
2021/12/08 19:51:39;;;;;;;11.25;6.43;;;;;;;3.78;96.54;99927.34;10543029;28;20028;-75
2021/12/08 19:56:39;;;;;;;12.27;6.53;;;;;;;3.72;96.63;99931.53;10525280;28;20032;-71
2021/12/08 20:01:40;;;;;;;12.35;5.40;;;;;;;3.64;97.18;99929.75;10541343;28;20451;-75
2021/12/08 20:06:41;;;;;;;8.27;6.18;;;;;;;3.65;98.20;99933.25;10540559;28;20055;-71
2021/12/08 20:11:41;;;;;;;9.05;6.55;;;;;;;3.72;97.83;99929.69;10539344;28;20040;-72
2021/12/08 20:16:42;;;;;;;18.25;6.75;;;;;;;3.74;97.52;99929.53;10540011;28;20055;-71
2021/12/08 20:21:42;;;;;;;9.88;5.15;;;;;;;3.73;97.98;99939.41;10505227;28;20077;-72
2021/12/08 20:26:43;;;;;;;6.72;4.22;;;;;;;3.74;97.42;99932.22;10537781;28;20031;-73
2021/12/08 20:31:44;;;;;;;15.40;6.43;;;;;;;3.75;96.94;99938.41;10540090;28;20040;-72
2021/12/08 20:36:44;;;;;;;9.52;5.47;;;;;;;3.73;98.10;99943.91;10538298;28;20119;-75
2021/12/08 20:41:44;;;;;;;12.43;5.53;;;;;;;3.73;98.19;99935.88;10538021;28;20035;-73
2021/12/08 20:46:45;;;;;;;8.43;3.88;;;;;;;3.75;98.07;99959.81;10539185;28;20057;-72
2021/12/08 20:51:46;;;;;;;15.25;5.10;;;;;;;3.66;97.78;99948.31;10539132;28;20511;-73
2021/12/08 20:56:49;;;;;;;8.32;5.40;;;;;;;3.65;97.28;99947.47;10521691;28;20032;-73
2021/12/08 21:01:55;;;;;;;6.43;4.82;;;;;;;3.64;97.65;99953.03;10539512;28;20055;-72
2021/12/08 21:06:59;;;;;;;18.67;6.80;;;;;;;3.63;97.67;99959.38;10539583;28;20060;-71
2021/12/08 21:11:59;;;;;;;5.25;4.85;;;;;;;3.67;97.98;99948.16;10537773;28;20058;-73
2021/12/08 21:16:59;;;;;;;11.45;6.13;;;;;;;3.68;98.17;99967.72;10538927;28;20038;-73
2021/12/08 21:22:00;;;;;;;7.93;6.05;;;;;;;3.68;98.97;99968.56;10538393;28;20024;-74
2021/12/08 21:27:00;;;;;;;9.05;5.38;;;;;;;3.65;97.75;99973.41;10537501;28;20399;-72
2021/12/08 21:32:01;;;;;;;10.35;5.10;;;;;;;3.73;98.46;99968.00;10538814;28;20040;-73
2021/12/08 21:37:03;;;;;;;8.57;5.43;;;;;;;3.68;97.71;99973.91;10538004;28;20113;-75
2021/12/08 21:42:04;;;;;;;11.13;5.03;;;;;;;3.62;97.48;99968.41;10543332;28;20110;-74
2021/12/08 21:47:05;;;;;;;8.32;6.03;;;;;;;3.57;97.04;99987.66;10546228;28;20040;-73
2021/12/08 21:52:05;;;;;;;6.93;5.32;;;;;;;3.43;97.55;99989.25;10546595;28;20367;-73
2021/12/08 21:57:06;;;;;;;14.77;7.05;;;;;;;3.49;97.38;99987.72;10545867;28;20044;-73
2021/12/08 22:02:06;;;;;;;10.07;6.63;;;;;;;3.36;97.64;99988.28;10545559;28;20042;-74
2021/12/08 22:07:06;;;;;;;6.03;5.43;;;;;;;3.32;97.15;99995.00;10544961;28;20056;-74
2021/12/08 22:12:10;;;;;;;14.48;5.25;;;;;;;3.30;96.80;99997.00;10545871;28;20093;-76
2021/12/08 22:17:11;;;;;;;8.40;6.13;;;;;;;3.26;98.36;99995.66;10545665;28;20464;-73
2021/12/08 22:22:11;;;;;;;13.77;6.53;;;;;;;3.36;97.16;100001.66;10544506;28;20032;-75
2021/12/08 22:27:12;;;;;;;10.07;6.60;;;;;;;3.28;96.99;100003.50;10544177;28;20032;-74
2021/12/08 22:32:12;;;;;;;7.40;6.35;;;;;;;3.22;97.68;100008.56;10544561;28;20063;-75
2021/12/08 22:37:15;;;;;;;14.00;7.38;;;;;;;3.22;97.03;99997.88;10544973;28;20044;-74
2021/12/08 22:42:16;;;;;;;13.68;5.85;;;;;;;3.20;96.28;100002.53;10544117;28;20036;-73
2021/12/08 22:47:16;;;;;;;14.27;5.72;;;;;;;3.21;96.77;100003.38;10543972;28;20433;-74
2021/12/08 22:52:17;;;;;;;12.80;6.57;;;;;;;3.17;96.28;100002.88;10542032;28;20040;-73
2021/12/08 22:57:18;;;;;;;6.93;5.88;;;;;;;3.10;96.76;100011.78;10544122;28;20475;-73
2021/12/08 23:02:18;;;;;;;13.50;6.43;;;;;;;3.08;96.32;100029.81;10543441;28;20039;-75
2021/12/08 23:07:20;;;;;;;19.77;6.35;;;;;;;3.02;96.72;100028.66;10542229;28;20510;-74
2021/12/08 23:12:20;;;;;;;16.40;7.68;;;;;;;3.06;96.52;100038.00;10542947;28;20035;-74
2021/12/08 23:17:21;;;;;;;21.35;7.45;;;;;;;3.05;96.70;100044.38;10524979;28;20376;-75
2021/12/08 23:22:21;;;;;;;15.90;6.63;;;;;;;3.00;96.73;100049.41;10543553;28;20028;-75
2021/12/08 23:27:22;;;;;;;21.75;7.13;;;;;;;3.06;97.25;100050.53;10543435;28;20097;-74
2021/12/08 23:32:23;;;;;;;19.90;8.23;;;;;;;3.01;96.35;100053.75;10543221;28;20119;-74
2021/12/08 23:37:33;;;;;;;17.02;7.90;;;;;;;3.05;96.52;100054.22;10507394;28;20028;-75
2021/12/08 23:42:33;;;;;;;19.52;8.07;;;;;;;3.08;97.02;100064.59;10542823;28;20111;-74
2021/12/08 23:47:34;;;;;;;15.15;6.72;;;;;;;3.06;96.52;100070.09;10540353;28;20379;-75
2021/12/08 23:52:34;;;;;;;17.30;6.80;;;;;;;3.08;96.17;100067.28;10541381;28;20085;-73
2021/12/08 23:57:36;;;;;;;12.35;6.13;;;;;;;2.86;95.90;100069.63;10539881;28;20459;-75
